sensor_id;sensor_type;location;lat;lon;timestamp;temperature;humidity
75786;DHT22;64402;44.708;37.644;2023-11-22T00:01:20;9.25;88.04
75786;DHT22;64402;44.708;37.644;2023-11-22T00:03:46;9.40;88.18
75786;DHT22;64402;44.708;37.644;2023-11-22T00:06:13;9.60;88.05
75786;DHT22;64402;44.708;37.644;2023-11-22T00:08:39;9.82;86.92
75786;DHT22;64402;44.708;37.644;2023-11-22T00:11:05;10.03;86.02
75786;DHT22;64402;44.708;37.644;2023-11-22T00:13:32;10.18;85.32
75786;DHT22;64402;44.708;37.644;2023-11-22T00:15:58;10.27;85.58
75786;DHT22;64402;44.708;37.644;2023-11-22T00:18:25;10.40;84.26
75786;DHT22;64402;44.708;37.644;2023-11-22T00:20:52;10.48;84.52
75786;DHT22;64402;44.708;37.644;2023-11-22T00:23:18;10.59;83.49
75786;DHT22;64402;44.708;37.644;2023-11-22T00:25:44;10.67;83.87
75786;DHT22;64402;44.708;37.644;2023-11-22T00:28:11;10.71;82.80
75786;DHT22;64402;44.708;37.644;2023-11-22T00:30:37;10.78;83.02
75786;DHT22;64402;44.708;37.644;2023-11-22T00:33:04;10.85;81.65
75786;DHT22;64402;44.708;37.644;2023-11-22T00:35:30;10.96;81.85
75786;DHT22;64402;44.708;37.644;2023-11-22T00:37:57;11.02;81.26
75786;DHT22;64402;44.708;37.644;2023-11-22T00:40:24;11.04;81.76
75786;DHT22;64402;44.708;37.644;2023-11-22T00:42:50;11.11;81.93
75786;DHT22;64402;44.708;37.644;2023-11-22T00:45:17;11.14;82.29
75786;DHT22;64402;44.708;37.644;2023-11-22T00:47:44;11.17;82.01
75786;DHT22;64402;44.708;37.644;2023-11-22T00:50:10;11.22;81.33
75786;DHT22;64402;44.708;37.644;2023-11-22T00:52:36;11.23;81.60
75786;DHT22;64402;44.708;37.644;2023-11-22T00:55:03;11.25;82.13
75786;DHT22;64402;44.708;37.644;2023-11-22T00:57:29;11.28;82.06
75786;DHT22;64402;44.708;37.644;2023-11-22T00:59:56;11.27;82.42
75786;DHT22;64402;44.708;37.644;2023-11-22T01:02:23;11.32;81.77
75786;DHT22;64402;44.708;37.644;2023-11-22T01:04:49;11.39;81.20
75786;DHT22;64402;44.708;37.644;2023-11-22T01:07:15;11.41;81.84
75786;DHT22;64402;44.708;37.644;2023-11-22T01:09:41;11.40;81.57
75786;DHT22;64402;44.708;37.644;2023-11-22T01:12:07;11.42;81.60
75786;DHT22;64402;44.708;37.644;2023-11-22T01:14:34;11.47;81.04
75786;DHT22;64402;44.708;37.644;2023-11-22T01:17:01;11.52;81.42
75786;DHT22;64402;44.708;37.644;2023-11-22T01:19:27;11.55;81.07
75786;DHT22;64402;44.708;37.644;2023-11-22T01:21:54;11.59;81.56
75786;DHT22;64402;44.708;37.644;2023-11-22T01:24:20;11.59;81.45
75786;DHT22;64402;44.708;37.644;2023-11-22T01:26:46;11.66;81.75
75786;DHT22;64402;44.708;37.644;2023-11-22T01:29:12;11.61;81.72
75786;DHT22;64402;44.708;37.644;2023-11-22T01:31:39;11.67;82.71
75786;DHT22;64402;44.708;37.644;2023-11-22T01:34:08;11.67;82.02
75786;DHT22;64402;44.708;37.644;2023-11-22T01:36:34;11.70;81.94
75786;DHT22;64402;44.708;37.644;2023-11-22T01:39:00;11.76;82.23
75786;DHT22;64402;44.708;37.644;2023-11-22T01:41:28;11.74;82.84
75786;DHT22;64402;44.708;37.644;2023-11-22T01:43:55;11.79;82.50
75786;DHT22;64402;44.708;37.644;2023-11-22T01:46:23;11.72;84.43
75786;DHT22;64402;44.708;37.644;2023-11-22T01:48:50;11.68;85.58
75786;DHT22;64402;44.708;37.644;2023-11-22T01:51:23;11.62;85.06
75786;DHT22;64402;44.708;37.644;2023-11-22T01:53:53;11.60;85.38
75786;DHT22;64402;44.708;37.644;2023-11-22T01:56:21;11.59;84.75
75786;DHT22;64402;44.708;37.644;2023-11-22T01:58:49;11.62;84.26
75786;DHT22;64402;44.708;37.644;2023-11-22T02:01:15;11.71;84.42
75786;DHT22;64402;44.708;37.644;2023-11-22T02:03:42;11.79;84.99
75786;DHT22;64402;44.708;37.644;2023-11-22T02:06:09;11.83;85.26
75786;DHT22;64402;44.708;37.644;2023-11-22T02:08:37;11.89;84.42
75786;DHT22;64402;44.708;37.644;2023-11-22T02:11:04;11.96;83.29
75786;DHT22;64402;44.708;37.644;2023-11-22T02:13:31;11.99;83.61
75786;DHT22;64402;44.708;37.644;2023-11-22T02:15:57;12.03;82.49
75786;DHT22;64402;44.708;37.644;2023-11-22T02:18:28;12.08;82.71
75786;DHT22;64402;44.708;37.644;2023-11-22T02:20:55;12.13;82.70
75786;DHT22;64402;44.708;37.644;2023-11-22T02:23:21;12.16;82.08
75786;DHT22;64402;44.708;37.644;2023-11-22T02:25:47;12.19;81.50
75786;DHT22;64402;44.708;37.644;2023-11-22T02:28:14;12.21;82.22
75786;DHT22;64402;44.708;37.644;2023-11-22T02:30:40;12.20;83.00
75786;DHT22;64402;44.708;37.644;2023-11-22T02:33:07;12.26;83.15
75786;DHT22;64402;44.708;37.644;2023-11-22T02:35:33;12.26;82.69
75786;DHT22;64402;44.708;37.644;2023-11-22T02:38:00;12.31;82.24
75786;DHT22;64402;44.708;37.644;2023-11-22T02:40:27;12.32;82.12
75786;DHT22;64402;44.708;37.644;2023-11-22T02:42:54;12.35;81.88
75786;DHT22;64402;44.708;37.644;2023-11-22T02:45:26;12.35;82.12
75786;DHT22;64402;44.708;37.644;2023-11-22T02:47:52;12.36;82.22
75786;DHT22;64402;44.708;37.644;2023-11-22T02:50:19;12.40;82.86
75786;DHT22;64402;44.708;37.644;2023-11-22T02:52:45;12.44;83.08
75786;DHT22;64402;44.708;37.644;2023-11-22T02:55:11;12.46;83.38
75786;DHT22;64402;44.708;37.644;2023-11-22T02:57:38;12.50;82.90
75786;DHT22;64402;44.708;37.644;2023-11-22T03:00:09;12.52;81.81
75786;DHT22;64402;44.708;37.644;2023-11-22T03:02:39;12.55;81.22
75786;DHT22;64402;44.708;37.644;2023-11-22T03:05:08;12.55;81.82
75786;DHT22;64402;44.708;37.644;2023-11-22T03:07:35;12.56;81.59
75786;DHT22;64402;44.708;37.644;2023-11-22T03:10:03;12.59;81.52
75786;DHT22;64402;44.708;37.644;2023-11-22T03:12:29;12.60;81.47
75786;DHT22;64402;44.708;37.644;2023-11-22T03:14:55;12.60;80.15
75786;DHT22;64402;44.708;37.644;2023-11-22T03:17:26;12.61;79.72
75786;DHT22;64402;44.708;37.644;2023-11-22T03:19:57;12.64;80.38
75786;DHT22;64402;44.708;37.644;2023-11-22T03:22:24;12.64;80.93
75786;DHT22;64402;44.708;37.644;2023-11-22T03:24:50;12.65;80.81
75786;DHT22;64402;44.708;37.644;2023-11-22T03:27:18;12.64;80.83
75786;DHT22;64402;44.708;37.644;2023-11-22T03:29:44;12.70;80.58
75786;DHT22;64402;44.708;37.644;2023-11-22T03:32:10;12.67;80.61
75786;DHT22;64402;44.708;37.644;2023-11-22T03:34:37;12.69;80.45
75786;DHT22;64402;44.708;37.644;2023-11-22T03:37:03;12.67;80.88
75786;DHT22;64402;44.708;37.644;2023-11-22T03:39:29;12.70;81.37
75786;DHT22;64402;44.708;37.644;2023-11-22T03:41:55;12.66;81.69
75786;DHT22;64402;44.708;37.644;2023-11-22T03:44:23;12.63;83.14
75786;DHT22;64402;44.708;37.644;2023-11-22T03:46:49;12.40;85.50
75786;DHT22;64402;44.708;37.644;2023-11-22T03:49:15;12.26;85.02
75786;DHT22;64402;44.708;37.644;2023-11-22T03:51:42;12.23;85.85
75786;DHT22;64402;44.708;37.644;2023-11-22T03:54:08;12.25;85.26
75786;DHT22;64402;44.708;37.644;2023-11-22T03:56:36;12.33;84.59
75786;DHT22;64402;44.708;37.644;2023-11-22T03:59:02;12.43;83.59
75786;DHT22;64402;44.708;37.644;2023-11-22T04:01:29;12.50;83.26
75786;DHT22;64402;44.708;37.644;2023-11-22T04:03:56;12.52;82.92
75786;DHT22;64402;44.708;37.644;2023-11-22T04:06:22;12.58;83.06
75786;DHT22;64402;44.708;37.644;2023-11-22T04:08:51;12.62;82.84
75786;DHT22;64402;44.708;37.644;2023-11-22T04:11:19;12.67;82.68
75786;DHT22;64402;44.708;37.644;2023-11-22T04:13:45;12.73;83.04
75786;DHT22;64402;44.708;37.644;2023-11-22T04:16:11;12.76;83.37
75786;DHT22;64402;44.708;37.644;2023-11-22T04:18:39;12.79;82.71
75786;DHT22;64402;44.708;37.644;2023-11-22T04:21:07;12.81;83.00
75786;DHT22;64402;44.708;37.644;2023-11-22T04:23:33;12.82;82.75
75786;DHT22;64402;44.708;37.644;2023-11-22T04:26:00;12.86;83.16
75786;DHT22;64402;44.708;37.644;2023-11-22T04:28:27;12.86;84.02
75786;DHT22;64402;44.708;37.644;2023-11-22T04:30:55;12.89;84.08
75786;DHT22;64402;44.708;37.644;2023-11-22T04:33:23;12.88;83.26
75786;DHT22;64402;44.708;37.644;2023-11-22T04:35:49;12.89;82.90
75786;DHT22;64402;44.708;37.644;2023-11-22T04:38:16;12.91;83.46
75786;DHT22;64402;44.708;37.644;2023-11-22T04:40:44;12.93;83.00
75786;DHT22;64402;44.708;37.644;2023-11-22T04:43:10;12.96;82.13
75786;DHT22;64402;44.708;37.644;2023-11-22T04:45:37;12.99;82.75
75786;DHT22;64402;44.708;37.644;2023-11-22T04:48:04;13.00;82.27
75786;DHT22;64402;44.708;37.644;2023-11-22T04:50:30;13.01;82.05
75786;DHT22;64402;44.708;37.644;2023-11-22T04:52:57;13.03;82.81
75786;DHT22;64402;44.708;37.644;2023-11-22T04:55:23;13.04;82.74
75786;DHT22;64402;44.708;37.644;2023-11-22T04:57:50;13.04;82.40
75786;DHT22;64402;44.708;37.644;2023-11-22T05:00:16;13.07;81.40
75786;DHT22;64402;44.708;37.644;2023-11-22T05:02:43;13.08;81.17
75786;DHT22;64402;44.708;37.644;2023-11-22T05:05:09;13.10;81.06
75786;DHT22;64402;44.708;37.644;2023-11-22T05:07:38;13.12;80.27
75786;DHT22;64402;44.708;37.644;2023-11-22T05:10:05;13.15;80.41
75786;DHT22;64402;44.708;37.644;2023-11-22T05:12:35;13.14;78.92
75786;DHT22;64402;44.708;37.644;2023-11-22T05:15:02;13.17;78.59
75786;DHT22;64402;44.708;37.644;2023-11-22T05:17:29;13.17;78.59
75786;DHT22;64402;44.708;37.644;2023-11-22T05:19:55;13.19;79.72
75786;DHT22;64402;44.708;37.644;2023-11-22T05:22:22;13.21;80.51
75786;DHT22;64402;44.708;37.644;2023-11-22T05:24:49;13.20;81.05
75786;DHT22;64402;44.708;37.644;2023-11-22T05:27:15;13.22;81.34
75786;DHT22;64402;44.708;37.644;2023-11-22T05:29:42;13.22;82.15
75786;DHT22;64402;44.708;37.644;2023-11-22T05:32:09;13.23;81.93
75786;DHT22;64402;44.708;37.644;2023-11-22T05:34:36;13.24;81.91
75786;DHT22;64402;44.708;37.644;2023-11-22T05:37:02;13.26;82.06
75786;DHT22;64402;44.708;37.644;2023-11-22T05:39:28;13.27;82.10
75786;DHT22;64402;44.708;37.644;2023-11-22T05:41:55;13.30;81.49
75786;DHT22;64402;44.708;37.644;2023-11-22T05:44:22;13.30;80.97
75786;DHT22;64402;44.708;37.644;2023-11-22T05:46:48;13.30;81.04
75786;DHT22;64402;44.708;37.644;2023-11-22T05:49:15;13.32;81.11
75786;DHT22;64402;44.708;37.644;2023-11-22T05:51:41;13.34;81.56
75786;DHT22;64402;44.708;37.644;2023-11-22T05:54:07;13.33;81.34
75786;DHT22;64402;44.708;37.644;2023-11-22T05:56:34;13.36;81.23
75786;DHT22;64402;44.708;37.644;2023-11-22T05:59:03;13.39;81.20
75786;DHT22;64402;44.708;37.644;2023-11-22T06:01:30;13.41;81.36
75786;DHT22;64402;44.708;37.644;2023-11-22T06:03:56;13.44;81.35
75786;DHT22;64402;44.708;37.644;2023-11-22T06:06:23;13.47;81.38
75786;DHT22;64402;44.708;37.644;2023-11-22T06:08:49;13.49;81.37
75786;DHT22;64402;44.708;37.644;2023-11-22T06:11:15;13.52;81.51
75786;DHT22;64402;44.708;37.644;2023-11-22T06:13:42;13.54;80.88
75786;DHT22;64402;44.708;37.644;2023-11-22T06:16:09;13.58;81.07
75786;DHT22;64402;44.708;37.644;2023-11-22T06:18:35;13.59;80.58
75786;DHT22;64402;44.708;37.644;2023-11-22T06:21:07;13.58;81.12
75786;DHT22;64402;44.708;37.644;2023-11-22T06:23:34;13.63;81.24
75786;DHT22;64402;44.708;37.644;2023-11-22T06:26:01;13.67;80.66
75786;DHT22;64402;44.708;37.644;2023-11-22T06:28:27;13.65;80.64
75786;DHT22;64402;44.708;37.644;2023-11-22T06:30:55;13.66;80.94
75786;DHT22;64402;44.708;37.644;2023-11-22T06:33:21;13.69;80.56
75786;DHT22;64402;44.708;37.644;2023-11-22T06:35:48;13.75;80.15
75786;DHT22;64402;44.708;37.644;2023-11-22T06:38:14;13.78;80.20
75786;DHT22;64402;44.708;37.644;2023-11-22T06:40:40;13.83;79.75
75786;DHT22;64402;44.708;37.644;2023-11-22T06:43:07;13.89;79.49
75786;DHT22;64402;44.708;37.644;2023-11-22T06:45:33;13.90;78.62
75786;DHT22;64402;44.708;37.644;2023-11-22T06:48:00;13.92;78.82
75786;DHT22;64402;44.708;37.644;2023-11-22T06:50:27;13.95;78.62
75786;DHT22;64402;44.708;37.644;2023-11-22T06:52:53;13.99;78.11
75786;DHT22;64402;44.708;37.644;2023-11-22T06:55:20;14.12;78.21
75786;DHT22;64402;44.708;37.644;2023-11-22T06:57:46;14.23;78.05
75786;DHT22;64402;44.708;37.644;2023-11-22T07:00:13;14.21;77.48
75786;DHT22;64402;44.708;37.644;2023-11-22T07:02:39;14.22;77.76
75786;DHT22;64402;44.708;37.644;2023-11-22T07:05:06;14.21;76.95
75786;DHT22;64402;44.708;37.644;2023-11-22T07:07:35;14.17;77.53
75786;DHT22;64402;44.708;37.644;2023-11-22T07:10:02;14.20;78.30
75786;DHT22;64402;44.708;37.644;2023-11-22T07:12:34;14.19;78.34
75786;DHT22;64402;44.708;37.644;2023-11-22T07:15:01;14.17;78.59
75786;DHT22;64402;44.708;37.644;2023-11-22T07:17:27;14.13;79.06
75786;DHT22;64402;44.708;37.644;2023-11-22T07:19:55;14.05;78.88
75786;DHT22;64402;44.708;37.644;2023-11-22T07:22:21;14.00;79.42
75786;DHT22;64402;44.708;37.644;2023-11-22T07:24:48;14.00;80.10
75786;DHT22;64402;44.708;37.644;2023-11-22T07:27:20;14.06;80.02
75786;DHT22;64402;44.708;37.644;2023-11-22T07:29:46;14.07;79.44
75786;DHT22;64402;44.708;37.644;2023-11-22T07:32:13;14.01;79.40
75786;DHT22;64402;44.708;37.644;2023-11-22T07:34:40;13.98;78.52
75786;DHT22;64402;44.708;37.644;2023-11-22T07:37:07;13.99;79.13
75786;DHT22;64402;44.708;37.644;2023-11-22T07:39:34;14.08;79.04
75786;DHT22;64402;44.708;37.644;2023-11-22T07:42:02;14.06;79.01
75786;DHT22;64402;44.708;37.644;2023-11-22T07:44:28;14.01;79.14
75786;DHT22;64402;44.708;37.644;2023-11-22T07:46:59;13.99;79.47
75786;DHT22;64402;44.708;37.644;2023-11-22T07:49:26;13.99;80.05
75786;DHT22;64402;44.708;37.644;2023-11-22T07:51:52;13.96;80.58
75786;DHT22;64402;44.708;37.644;2023-11-22T07:54:19;13.95;80.52
75786;DHT22;64402;44.708;37.644;2023-11-22T07:56:49;13.93;79.88
75786;DHT22;64402;44.708;37.644;2023-11-22T07:59:15;13.91;79.75
75786;DHT22;64402;44.708;37.644;2023-11-22T08:01:45;13.93;79.94
75786;DHT22;64402;44.708;37.644;2023-11-22T08:04:13;13.93;80.63
75786;DHT22;64402;44.708;37.644;2023-11-22T08:06:40;13.92;80.54
75786;DHT22;64402;44.708;37.644;2023-11-22T08:09:06;13.93;80.23
75786;DHT22;64402;44.708;37.644;2023-11-22T08:11:34;13.92;80.10
75786;DHT22;64402;44.708;37.644;2023-11-22T08:14:02;13.92;80.70
75786;DHT22;64402;44.708;37.644;2023-11-22T08:16:28;13.95;81.05
75786;DHT22;64402;44.708;37.644;2023-11-22T08:18:55;13.96;79.97
75786;DHT22;64402;44.708;37.644;2023-11-22T08:21:23;14.04;79.74
75786;DHT22;64402;44.708;37.644;2023-11-22T08:23:49;14.06;79.64
75786;DHT22;64402;44.708;37.644;2023-11-22T08:26:16;14.11;79.44
75786;DHT22;64402;44.708;37.644;2023-11-22T08:28:42;14.20;79.08
75786;DHT22;64402;44.708;37.644;2023-11-22T08:31:08;14.19;78.84
75786;DHT22;64402;44.708;37.644;2023-11-22T08:33:38;14.26;78.63
75786;DHT22;64402;44.708;37.644;2023-11-22T08:36:06;14.33;78.51
75786;DHT22;64402;44.708;37.644;2023-11-22T08:38:32;14.38;77.90
75786;DHT22;64402;44.708;37.644;2023-11-22T08:41:02;14.36;77.90
75786;DHT22;64402;44.708;37.644;2023-11-22T08:43:28;14.34;77.48
75786;DHT22;64402;44.708;37.644;2023-11-22T08:45:54;14.34;77.66
75786;DHT22;64402;44.708;37.644;2023-11-22T08:48:21;14.25;78.40
75786;DHT22;64402;44.708;37.644;2023-11-22T08:50:47;14.24;79.04
75786;DHT22;64402;44.708;37.644;2023-11-22T08:53:15;14.23;78.50
75786;DHT22;64402;44.708;37.644;2023-11-22T08:55:43;14.21;78.99
75786;DHT22;64402;44.708;37.644;2023-11-22T08:58:12;14.20;79.24
75786;DHT22;64402;44.708;37.644;2023-11-22T09:00:40;14.18;78.65
75786;DHT22;64402;44.708;37.644;2023-11-22T09:03:11;14.11;78.58
75786;DHT22;64402;44.708;37.644;2023-11-22T09:05:42;14.08;79.37
75786;DHT22;64402;44.708;37.644;2023-11-22T09:08:09;14.04;80.57
75786;DHT22;64402;44.708;37.644;2023-11-22T09:10:42;14.04;80.52
75786;DHT22;64402;44.708;37.644;2023-11-22T09:13:08;14.07;80.11
75786;DHT22;64402;44.708;37.644;2023-11-22T09:15:35;14.13;78.97
75786;DHT22;64402;44.708;37.644;2023-11-22T09:18:02;14.20;78.37
75786;DHT22;64402;44.708;37.644;2023-11-22T09:20:28;14.25;78.38
75786;DHT22;64402;44.708;37.644;2023-11-22T09:22:55;14.29;79.13
75786;DHT22;64402;44.708;37.644;2023-11-22T09:25:26;14.22;79.17
75786;DHT22;64402;44.708;37.644;2023-11-22T09:27:55;14.14;77.69
75786;DHT22;64402;44.708;37.644;2023-11-22T09:30:23;13.97;80.59
75786;DHT22;64402;44.708;37.644;2023-11-22T09:32:59;13.91;80.83
75786;DHT22;64402;44.708;37.644;2023-11-22T09:35:27;13.91;81.81
75786;DHT22;64402;44.708;37.644;2023-11-22T09:38:05;13.92;80.29
75786;DHT22;64402;44.708;37.644;2023-11-22T09:40:46;13.88;80.76
75786;DHT22;64402;44.708;37.644;2023-11-22T09:43:13;13.86;81.59
75786;DHT22;64402;44.708;37.644;2023-11-22T09:45:50;13.83;82.58
75786;DHT22;64402;44.708;37.644;2023-11-22T09:48:17;13.78;83.67
75786;DHT22;64402;44.708;37.644;2023-11-22T09:51:15;13.74;84.36
75786;DHT22;64402;44.708;37.644;2023-11-22T09:54:00;13.61;86.21
75786;DHT22;64402;44.708;37.644;2023-11-22T09:56:31;13.58;85.60
75786;DHT22;64402;44.708;37.644;2023-11-22T09:58:59;13.54;86.00
75786;DHT22;64402;44.708;37.644;2023-11-22T10:01:29;13.49;86.48
75786;DHT22;64402;44.708;37.644;2023-11-22T10:04:03;13.39;87.68
75786;DHT22;64402;44.708;37.644;2023-11-22T10:06:32;13.32;88.47
75786;DHT22;64402;44.708;37.644;2023-11-22T10:09:03;13.33;87.40
75786;DHT22;64402;44.708;37.644;2023-11-22T10:11:36;13.37;87.03
75786;DHT22;64402;44.708;37.644;2023-11-22T10:14:04;13.39;87.44
75786;DHT22;64402;44.708;37.644;2023-11-22T10:16:30;13.39;86.73
75786;DHT22;64402;44.708;37.644;2023-11-22T10:18:58;13.44;87.33
75786;DHT22;64402;44.708;37.644;2023-11-22T10:21:25;13.39;87.32
75786;DHT22;64402;44.708;37.644;2023-11-22T10:23:57;13.33;87.77
75786;DHT22;64402;44.708;37.644;2023-11-22T10:26:26;13.33;88.85
75786;DHT22;64402;44.708;37.644;2023-11-22T10:28:57;13.29;90.17
75786;DHT22;64402;44.708;37.644;2023-11-22T10:31:24;13.25;89.77
75786;DHT22;64402;44.708;37.644;2023-11-22T10:33:51;13.22;89.65
75786;DHT22;64402;44.708;37.644;2023-11-22T10:36:18;13.14;90.18
75786;DHT22;64402;44.708;37.644;2023-11-22T10:38:46;13.10;90.41
75786;DHT22;64402;44.708;37.644;2023-11-22T10:41:13;13.06;90.46
75786;DHT22;64402;44.708;37.644;2023-11-22T10:43:40;13.05;89.73
75786;DHT22;64402;44.708;37.644;2023-11-22T10:46:08;13.06;88.66
75786;DHT22;64402;44.708;37.644;2023-11-22T10:48:37;13.14;89.47
75786;DHT22;64402;44.708;37.644;2023-11-22T10:51:05;13.20;88.99
75786;DHT22;64402;44.708;37.644;2023-11-22T10:53:44;13.24;88.47
75786;DHT22;64402;44.708;37.644;2023-11-22T10:56:15;13.25;88.64
75786;DHT22;64402;44.708;37.644;2023-11-22T10:58:57;13.31;88.26
75786;DHT22;64402;44.708;37.644;2023-11-22T11:01:25;13.38;87.23
75786;DHT22;64402;44.708;37.644;2023-11-22T11:04:09;13.44;86.84
75786;DHT22;64402;44.708;37.644;2023-11-22T11:06:37;13.47;85.56
75786;DHT22;64402;44.708;37.644;2023-11-22T11:09:05;13.51;85.14
75786;DHT22;64402;44.708;37.644;2023-11-22T11:11:33;13.53;85.01
75786;DHT22;64402;44.708;37.644;2023-11-22T11:14:01;13.58;84.82
75786;DHT22;64402;44.708;37.644;2023-11-22T11:16:31;13.62;83.81
75786;DHT22;64402;44.708;37.644;2023-11-22T11:18:58;13.66;84.05
75786;DHT22;64402;44.708;37.644;2023-11-22T11:21:25;13.69;83.13
75786;DHT22;64402;44.708;37.644;2023-11-22T11:23:55;13.76;83.23
75786;DHT22;64402;44.708;37.644;2023-11-22T11:26:28;13.80;82.66
75786;DHT22;64402;44.708;37.644;2023-11-22T11:28:57;13.83;82.69
75786;DHT22;64402;44.708;37.644;2023-11-22T11:31:24;13.89;82.65
75786;DHT22;64402;44.708;37.644;2023-11-22T11:36:21;13.97;81.82
75786;DHT22;64402;44.708;37.644;2023-11-22T11:38:51;14.06;82.17
75786;DHT22;64402;44.708;37.644;2023-11-22T11:41:18;14.08;81.05
75786;DHT22;64402;44.708;37.644;2023-11-22T11:43:48;14.09;80.37
75786;DHT22;64402;44.708;37.644;2023-11-22T11:46:16;14.11;81.04
75786;DHT22;64402;44.708;37.644;2023-11-22T11:48:50;14.13;80.82
75786;DHT22;64402;44.708;37.644;2023-11-22T11:51:18;14.15;80.65
75786;DHT22;64402;44.708;37.644;2023-11-22T11:53:45;14.18;81.02
75786;DHT22;64402;44.708;37.644;2023-11-22T11:56:12;14.11;79.66
75786;DHT22;64402;44.708;37.644;2023-11-22T11:58:41;14.13;80.06
75786;DHT22;64402;44.708;37.644;2023-11-22T12:01:08;14.12;80.37
75786;DHT22;64402;44.708;37.644;2023-11-22T12:03:36;14.13;80.69
75786;DHT22;64402;44.708;37.644;2023-11-22T12:06:02;14.15;80.59
75786;DHT22;64402;44.708;37.644;2023-11-22T12:08:28;14.14;80.36
75786;DHT22;64402;44.708;37.644;2023-11-22T12:11:05;14.14;80.41
75786;DHT22;64402;44.708;37.644;2023-11-22T12:13:34;14.11;80.05
75786;DHT22;64402;44.708;37.644;2023-11-22T12:16:07;14.10;80.40
75786;DHT22;64402;44.708;37.644;2023-11-22T12:18:55;14.12;80.27
75786;DHT22;64402;44.708;37.644;2023-11-22T12:21:23;14.10;81.30
75786;DHT22;64402;44.708;37.644;2023-11-22T12:23:49;14.08;80.80
75786;DHT22;64402;44.708;37.644;2023-11-22T12:26:16;14.07;80.98
75786;DHT22;64402;44.708;37.644;2023-11-22T12:28:46;14.05;81.14
75786;DHT22;64402;44.708;37.644;2023-11-22T12:31:14;14.01;81.20
75786;DHT22;64402;44.708;37.644;2023-11-22T12:33:42;14.04;81.68
75786;DHT22;64402;44.708;37.644;2023-11-22T12:36:08;14.04;81.94
75786;DHT22;64402;44.708;37.644;2023-11-22T12:38:42;14.03;82.25
75786;DHT22;64402;44.708;37.644;2023-11-22T12:41:08;14.03;82.55
75786;DHT22;64402;44.708;37.644;2023-11-22T12:43:35;14.04;82.63
75786;DHT22;64402;44.708;37.644;2023-11-22T12:46:05;14.03;82.20
75786;DHT22;64402;44.708;37.644;2023-11-22T12:48:41;14.01;82.71
75786;DHT22;64402;44.708;37.644;2023-11-22T12:51:17;14.00;82.84
75786;DHT22;64402;44.708;37.644;2023-11-22T12:53:47;14.03;82.79
75786;DHT22;64402;44.708;37.644;2023-11-22T12:56:15;14.00;82.52
75786;DHT22;64402;44.708;37.644;2023-11-22T12:58:42;14.00;83.10
75786;DHT22;64402;44.708;37.644;2023-11-22T13:01:08;14.01;83.35
75786;DHT22;64402;44.708;37.644;2023-11-22T13:03:35;13.97;83.26
75786;DHT22;64402;44.708;37.644;2023-11-22T13:06:01;13.96;83.07
75786;DHT22;64402;44.708;37.644;2023-11-22T13:08:28;13.94;83.21
75786;DHT22;64402;44.708;37.644;2023-11-22T13:10:55;13.95;83.85
75786;DHT22;64402;44.708;37.644;2023-11-22T13:13:24;13.97;84.32
75786;DHT22;64402;44.708;37.644;2023-11-22T13:15:51;13.94;84.21
75786;DHT22;64402;44.708;37.644;2023-11-22T13:18:19;13.91;84.42
75786;DHT22;64402;44.708;37.644;2023-11-22T13:20:45;13.90;84.32
75786;DHT22;64402;44.708;37.644;2023-11-22T13:23:12;13.91;85.06
75786;DHT22;64402;44.708;37.644;2023-11-22T13:25:40;13.90;85.23
75786;DHT22;64402;44.708;37.644;2023-11-22T13:28:09;13.89;85.45
75786;DHT22;64402;44.708;37.644;2023-11-22T13:30:36;13.81;87.13
75786;DHT22;64402;44.708;37.644;2023-11-22T13:33:02;13.78;87.26
75786;DHT22;64402;44.708;37.644;2023-11-22T13:35:30;13.70;88.09
75786;DHT22;64402;44.708;37.644;2023-11-22T13:38:04;13.63;88.62
75786;DHT22;64402;44.708;37.644;2023-11-22T13:40:37;13.47;89.79
75786;DHT22;64402;44.708;37.644;2023-11-22T13:43:06;13.41;90.01
75786;DHT22;64402;44.708;37.644;2023-11-22T13:45:35;13.36;90.96
75786;DHT22;64402;44.708;37.644;2023-11-22T13:48:02;13.23;91.65
75786;DHT22;64402;44.708;37.644;2023-11-22T13:50:33;13.21;91.81
75786;DHT22;64402;44.708;37.644;2023-11-22T13:53:00;13.14;93.72
75786;DHT22;64402;44.708;37.644;2023-11-22T13:55:26;13.10;94.16
75786;DHT22;64402;44.708;37.644;2023-11-22T13:57:57;13.03;94.17
75786;DHT22;64402;44.708;37.644;2023-11-22T14:00:26;12.99;93.99
75786;DHT22;64402;44.708;37.644;2023-11-22T14:02:56;12.94;94.49
75786;DHT22;64402;44.708;37.644;2023-11-22T14:05:22;12.90;95.55
75786;DHT22;64402;44.708;37.644;2023-11-22T14:07:49;12.85;95.38
75786;DHT22;64402;44.708;37.644;2023-11-22T14:10:17;12.81;97.13
75786;DHT22;64402;44.708;37.644;2023-11-22T14:12:44;12.76;97.60
75786;DHT22;64402;44.708;37.644;2023-11-22T14:15:11;12.74;97.00
75786;DHT22;64402;44.708;37.644;2023-11-22T14:17:37;12.74;97.38
75786;DHT22;64402;44.708;37.644;2023-11-22T14:20:10;12.74;96.99
75786;DHT22;64402;44.708;37.644;2023-11-22T14:22:38;12.74;97.43
75786;DHT22;64402;44.708;37.644;2023-11-22T14:25:10;12.69;97.42
75786;DHT22;64402;44.708;37.644;2023-11-22T14:27:42;12.66;98.14
75786;DHT22;64402;44.708;37.644;2023-11-22T14:30:12;12.62;97.90
75786;DHT22;64402;44.708;37.644;2023-11-22T14:32:41;12.59;98.42
75786;DHT22;64402;44.708;37.644;2023-11-22T14:35:11;12.62;98.34
75786;DHT22;64402;44.708;37.644;2023-11-22T14:37:38;12.63;98.26
75786;DHT22;64402;44.708;37.644;2023-11-22T14:40:08;12.64;98.19
75786;DHT22;64402;44.708;37.644;2023-11-22T14:42:42;12.63;98.05
75786;DHT22;64402;44.708;37.644;2023-11-22T14:45:10;12.62;98.00
75786;DHT22;64402;44.708;37.644;2023-11-22T14:47:40;12.53;98.88
75786;DHT22;64402;44.708;37.644;2023-11-22T14:50:08;12.47;98.84
75786;DHT22;64402;44.708;37.644;2023-11-22T14:52:38;12.51;99.24
75786;DHT22;64402;44.708;37.644;2023-11-22T14:55:05;12.56;99.44
75786;DHT22;64402;44.708;37.644;2023-11-22T14:57:32;12.61;99.30
75786;DHT22;64402;44.708;37.644;2023-11-22T14:59:58;12.63;98.91
75786;DHT22;64402;44.708;37.644;2023-11-22T15:02:24;12.63;99.31
75786;DHT22;64402;44.708;37.644;2023-11-22T15:04:52;12.62;98.62
75786;DHT22;64402;44.708;37.644;2023-11-22T15:07:18;12.62;99.29
75786;DHT22;64402;44.708;37.644;2023-11-22T15:09:45;12.58;99.72
75786;DHT22;64402;44.708;37.644;2023-11-22T15:12:11;12.53;100.45
75786;DHT22;64402;44.708;37.644;2023-11-22T15:14:38;12.52;100.82
75786;DHT22;64402;44.708;37.644;2023-11-22T15:17:04;12.53;101.06
75786;DHT22;64402;44.708;37.644;2023-11-22T15:19:33;12.49;101.16
75786;DHT22;64402;44.708;37.644;2023-11-22T15:22:02;12.47;101.35